createdAt,value
2019-02-19T00:01:04.124Z,13.50
2019-02-19T00:03:37.056Z,21.30
2019-02-19T00:06:10.018Z,11.57
2019-02-19T00:08:43.165Z,11.80
2019-02-19T00:11:16.465Z,13.27
2019-02-19T00:13:49.348Z,15.63
2019-02-19T00:16:22.310Z,18.73
2019-02-19T00:18:55.055Z,18.97
2019-02-19T00:21:27.890Z,21.93
2019-02-19T00:24:00.968Z,15.33
2019-02-19T00:26:33.989Z,11.50
2019-02-19T00:29:06.964Z,11.90
2019-02-19T00:31:39.929Z,13.47
2019-02-19T00:34:12.854Z,13.00
2019-02-19T00:36:45.633Z,15.53
2019-02-19T00:39:18.621Z,13.60
2019-02-19T00:41:51.505Z,15.53
2019-02-19T00:44:24.434Z,11.73
2019-02-19T00:46:57.321Z,9.63
2019-02-19T00:49:30.137Z,12.07
2019-02-19T00:52:03.221Z,11.47
2019-02-19T00:54:36.068Z,11.23
2019-02-19T00:57:09.049Z,9.10
2019-02-19T00:59:41.864Z,11.23
2019-02-19T01:02:14.919Z,14.33
2019-02-19T01:04:47.850Z,12.87
2019-02-19T01:07:24.304Z,14.90
2019-02-19T01:09:57.547Z,16.80
2019-02-19T01:12:30.805Z,8.77
2019-02-19T01:15:04.237Z,16.23
2019-02-19T01:17:37.189Z,14.13
2019-02-19T01:20:10.185Z,11.83
2019-02-19T01:22:43.129Z,10.20
2019-02-19T01:25:16.095Z,13.93
2019-02-19T01:27:48.995Z,8.20
2019-02-19T01:30:22.116Z,8.70
2019-02-19T01:32:55.153Z,12.50
2019-02-19T01:35:27.999Z,9.83
2019-02-19T01:38:00.979Z,12.10
2019-02-19T01:40:33.756Z,15.43
2019-02-19T01:43:06.759Z,12.17
2019-02-19T01:45:39.565Z,11.77
2019-02-19T01:48:12.625Z,10.13
2019-02-19T01:50:45.399Z,13.20
2019-02-19T01:53:18.486Z,11.50
2019-02-19T01:55:51.372Z,15.33
2019-02-19T01:58:24.372Z,12.60
2019-02-19T02:00:57.577Z,14.13
2019-02-19T02:03:30.625Z,13.87
2019-02-19T02:06:03.661Z,13.47
2019-02-19T02:08:36.717Z,13.20
2019-02-19T02:11:09.677Z,11.67
2019-02-19T02:13:42.726Z,14.37
2019-02-19T02:16:15.546Z,11.70
2019-02-19T02:18:48.390Z,15.33
2019-02-19T02:21:21.350Z,15.77
2019-02-19T02:23:54.282Z,17.37
2019-02-19T02:26:27.171Z,10.80
2019-02-19T02:29:00.176Z,12.73
2019-02-19T02:31:33.102Z,14.73
2019-02-19T02:34:06.101Z,12.67
2019-02-19T02:36:38.927Z,14.23
2019-02-19T02:39:11.946Z,17.03
2019-02-19T02:41:44.676Z,14.23
2019-02-19T02:44:17.676Z,17.43
2019-02-19T02:46:50.601Z,13.70
2019-02-19T02:49:23.554Z,13.47
2019-02-19T02:51:56.492Z,14.23
2019-02-19T02:54:29.450Z,14.50
2019-02-19T02:57:03.054Z,13.87
2019-02-19T02:59:36.151Z,17.00
2019-02-19T03:02:08.949Z,17.00
2019-02-19T03:04:42.737Z,17.93
2019-02-19T03:07:23.720Z,15.57
2019-02-19T03:09:56.795Z,20.43
2019-02-19T03:12:29.589Z,15.40
2019-02-19T03:15:02.990Z,22.10
2019-02-19T03:17:36.176Z,15.70
2019-02-19T03:20:09.037Z,17.33
2019-02-19T03:22:41.911Z,22.07
2019-02-19T03:25:14.774Z,16.00
2019-02-19T03:27:47.645Z,18.60
2019-02-19T03:30:20.487Z,17.37
2019-02-19T03:32:54.348Z,22.73
2019-02-19T03:35:27.316Z,19.73
2019-02-19T03:38:00.157Z,23.40
2019-02-19T03:40:33.224Z,22.77
2019-02-19T03:43:06.243Z,17.53
2019-02-19T03:45:39.352Z,24.23
2019-02-19T03:48:12.398Z,21.40
2019-02-19T03:50:45.282Z,23.67
2019-02-19T03:53:18.177Z,31.40
2019-02-19T03:55:51.013Z,39.27
2019-02-19T03:58:24.011Z,31.50
2019-02-19T04:00:56.884Z,33.33
2019-02-19T04:03:29.792Z,34.33
2019-02-19T04:06:02.568Z,33.37
2019-02-19T04:08:35.359Z,34.37
2019-02-19T04:11:08.277Z,37.07
2019-02-19T04:13:41.299Z,38.40
2019-02-19T04:16:21.131Z,35.63
2019-02-19T04:18:48.775Z,36.03
2019-02-19T04:21:21.722Z,36.33
2019-02-19T04:23:54.430Z,35.77
2019-02-19T04:26:27.388Z,33.50
2019-02-19T04:29:00.482Z,39.23
2019-02-19T04:31:33.593Z,36.67
2019-02-19T04:34:06.719Z,41.50
2019-02-19T04:36:39.799Z,39.40
2019-02-19T04:39:12.712Z,39.83
2019-02-19T04:41:46.040Z,44.27
2019-02-19T04:44:18.870Z,42.40
2019-02-19T04:46:51.756Z,50.90
2019-02-19T04:49:24.688Z,44.90
2019-02-19T04:51:57.523Z,49.20
2019-02-19T04:54:30.305Z,50.07
2019-02-19T04:57:03.327Z,47.43
2019-02-19T04:59:36.177Z,49.77
2019-02-19T05:02:09.250Z,53.73
2019-02-19T05:04:42.129Z,64.47
2019-02-19T05:07:15.318Z,62.83
2019-02-19T05:09:48.481Z,67.97
2019-02-19T05:12:21.602Z,62.53
2019-02-19T05:14:54.589Z,70.57
2019-02-19T05:17:27.445Z,70.47
2019-02-19T05:20:00.294Z,66.20
2019-02-19T05:22:33.199Z,71.50
2019-02-19T05:25:06.209Z,86.97
2019-02-19T05:27:39.130Z,69.93
2019-02-19T05:30:12.109Z,75.10
2019-02-19T05:32:44.840Z,87.37
2019-02-19T05:35:17.938Z,85.20
2019-02-19T05:37:50.945Z,83.33
2019-02-19T05:40:24.825Z,69.43
2019-02-19T05:42:58.059Z,76.70
2019-02-19T05:45:31.003Z,85.33
2019-02-19T05:48:05.340Z,78.00
2019-02-19T05:50:38.545Z,89.57
2019-02-19T05:53:11.400Z,72.23
2019-02-19T05:55:44.325Z,76.37
2019-02-19T05:58:17.423Z,70.93
2019-02-19T06:00:50.317Z,70.17
2019-02-19T06:03:23.194Z,66.67
2019-02-19T06:05:56.098Z,85.33
2019-02-19T06:08:29.154Z,86.63
2019-02-19T06:11:01.958Z,71.13
2019-02-19T06:13:34.695Z,86.70
2019-02-19T06:16:07.576Z,88.17
2019-02-19T06:18:40.554Z,84.57
2019-02-19T06:21:13.420Z,75.17
2019-02-19T06:23:46.256Z,86.43
2019-02-19T06:26:19.127Z,84.47
2019-02-19T06:28:52.250Z,84.07
2019-02-19T06:31:25.151Z,94.97
2019-02-19T06:33:57.955Z,95.87
2019-02-19T06:36:30.751Z,95.03
2019-02-19T06:39:04.660Z,96.50
2019-02-19T06:41:37.729Z,99.23
2019-02-19T06:44:10.755Z,86.77
2019-02-19T06:46:43.575Z,96.97
2019-02-19T06:49:16.456Z,93.77
2019-02-19T06:51:49.605Z,87.97
2019-02-19T06:54:22.679Z,81.70
2019-02-19T06:56:55.885Z,85.40
2019-02-19T06:59:29.269Z,95.80
2019-02-19T07:02:11.495Z,104.13
2019-02-19T07:04:48.759Z,95.30
2019-02-19T07:07:21.786Z,98.17
2019-02-19T07:09:54.875Z,96.07
2019-02-19T07:12:27.974Z,86.17
2019-02-19T07:15:01.078Z,97.80
2019-02-19T07:17:34.251Z,93.37
2019-02-19T07:20:07.476Z,88.20
2019-02-19T07:22:40.470Z,96.03
2019-02-19T07:25:13.561Z,84.47
2019-02-19T07:27:46.367Z,89.13
2019-02-19T07:30:19.255Z,89.17
2019-02-19T07:32:52.016Z,84.70
2019-02-19T07:35:24.989Z,80.83
2019-02-19T07:37:57.791Z,79.83
2019-02-19T07:40:30.702Z,77.00
2019-02-19T07:43:03.523Z,81.60
2019-02-19T07:45:36.402Z,82.07
2019-02-19T07:48:09.389Z,82.20
2019-02-19T07:50:42.490Z,78.83
2019-02-19T07:53:15.609Z,69.40
2019-02-19T07:55:48.578Z,71.80
2019-02-19T07:58:21.475Z,71.37
2019-02-19T08:00:54.690Z,67.73
2019-02-19T08:03:27.850Z,58.20
2019-02-19T08:06:00.813Z,59.50
2019-02-19T08:08:33.993Z,67.70
2019-02-19T08:11:07.366Z,55.93
2019-02-19T08:13:40.455Z,59.10
2019-02-19T08:16:13.430Z,54.67
2019-02-19T08:18:46.397Z,58.37
2019-02-19T08:21:19.415Z,48.97
2019-02-19T08:23:53.292Z,54.30
2019-02-19T08:26:26.227Z,51.23
2019-02-19T08:29:07.138Z,49.17
2019-02-19T08:31:34.376Z,53.50
2019-02-19T08:34:07.221Z,43.93
2019-02-19T08:36:40.143Z,52.77
2019-02-19T08:39:13.346Z,51.20
2019-02-19T08:41:46.620Z,41.07
2019-02-19T08:44:19.566Z,50.33
2019-02-19T08:46:52.582Z,50.33
2019-02-19T08:49:25.608Z,46.20
2019-02-19T08:51:58.686Z,44.53
2019-02-19T08:54:31.862Z,46.30
2019-02-19T08:57:04.922Z,41.00
2019-02-19T08:59:38.119Z,34.00
2019-02-19T09:02:11.248Z,41.13
2019-02-19T09:04:44.311Z,33.93
2019-02-19T09:07:17.304Z,38.10
2019-02-19T09:09:50.276Z,36.93
2019-02-19T09:12:23.108Z,45.77
2019-02-19T09:14:56.064Z,44.87
2019-02-19T09:17:29.289Z,39.43
2019-02-19T09:20:02.322Z,35.20
2019-02-19T09:22:35.575Z,39.10
2019-02-19T09:25:08.863Z,33.57
2019-02-19T09:27:43.317Z,34.67
2019-02-19T09:30:16.788Z,42.83
2019-02-19T09:32:50.111Z,35.93
2019-02-19T09:35:23.135Z,42.63
2019-02-19T09:37:56.331Z,35.53
2019-02-19T09:40:29.313Z,33.57
2019-02-19T09:43:02.331Z,38.33
2019-02-19T09:45:35.437Z,36.47
2019-02-19T09:48:08.422Z,41.10
2019-02-19T09:50:41.458Z,30.33
2019-02-19T09:53:14.710Z,36.10
2019-02-19T09:55:47.738Z,37.80
2019-02-19T09:58:20.873Z,39.03
2019-02-19T10:00:54.087Z,36.23
2019-02-19T10:03:27.195Z,37.20
2019-02-19T10:06:00.344Z,31.00
2019-02-19T10:08:34.560Z,27.87
2019-02-19T10:11:07.443Z,32.33
2019-02-19T10:13:40.712Z,29.07
2019-02-19T10:16:13.690Z,29.67
2019-02-19T10:18:46.832Z,26.55
2019-02-19T10:21:19.740Z,26.12
2019-02-19T10:23:52.703Z,27.67
2019-02-19T10:26:25.772Z,27.45
2019-02-19T10:28:58.689Z,30.25
2019-02-19T10:31:31.661Z,29.65
2019-02-19T10:34:04.726Z,32.63
2019-02-19T10:36:38.710Z,28.98
2019-02-19T10:39:12.037Z,27.10
2019-02-19T10:41:45.347Z,33.42
2019-02-19T10:44:18.208Z,21.97
2019-02-19T10:46:51.047Z,23.87
2019-02-19T10:49:24.095Z,24.82
2019-02-19T10:51:57.025Z,21.37
2019-02-19T10:54:29.875Z,25.48
2019-02-19T10:57:03.028Z,17.70
2019-02-19T10:59:36.120Z,19.70
2019-02-19T11:02:09.070Z,26.20
2019-02-19T11:04:42.105Z,11.38
2019-02-19T11:07:15.080Z,10.65
2019-02-19T11:09:48.271Z,16.30
2019-02-19T11:12:22.240Z,11.93
2019-02-19T11:14:55.325Z,15.90
2019-02-19T11:17:29.153Z,15.00
2019-02-19T11:20:02.141Z,17.70
2019-02-19T11:22:35.246Z,15.13
2019-02-19T11:25:09.907Z,15.93
2019-02-19T11:27:42.864Z,12.15
2019-02-19T11:30:16.123Z,12.43
2019-02-19T11:32:49.131Z,17.57
2019-02-19T11:35:22.086Z,17.40
2019-02-19T11:37:55.061Z,14.23
2019-02-19T11:40:27.857Z,15.83
2019-02-19T11:43:00.768Z,15.83
2019-02-19T11:45:33.799Z,13.35
2019-02-19T11:48:07.023Z,16.90
2019-02-19T11:50:40.088Z,16.65
2019-02-19T11:53:13.184Z,17.23
2019-02-19T11:55:46.098Z,14.58
2019-02-19T11:58:18.973Z,13.50
2019-02-19T12:00:51.994Z,15.23
2019-02-19T12:03:25.465Z,10.43
2019-02-19T12:05:58.726Z,10.38
2019-02-19T12:08:38.826Z,16.20
2019-02-19T12:11:06.581Z,11.95
2019-02-19T12:13:39.624Z,12.65
2019-02-19T12:16:12.628Z,22.50
2019-02-19T12:18:46.440Z,12.13
2019-02-19T12:21:19.886Z,8.95
2019-02-19T12:23:52.689Z,8.43
2019-02-19T12:26:25.920Z,13.53
2019-02-19T12:28:59.973Z,13.15
2019-02-19T12:31:32.931Z,12.40
2019-02-19T12:34:06.087Z,13.85
2019-02-19T12:36:39.069Z,12.80
2019-02-19T12:39:12.059Z,10.95
2019-02-19T12:41:45.291Z,11.28
2019-02-19T12:44:18.435Z,10.75
2019-02-19T12:46:51.530Z,13.62
2019-02-19T12:49:24.446Z,12.50
2019-02-19T12:51:57.869Z,16.40
2019-02-19T12:54:30.922Z,16.27
2019-02-19T12:57:03.915Z,13.98
2019-02-19T12:59:36.894Z,20.97
2019-02-19T13:02:11.166Z,12.60
2019-02-19T13:04:44.265Z,9.80
2019-02-19T13:07:17.503Z,11.93
2019-02-19T13:09:50.661Z,13.13
2019-02-19T13:12:23.623Z,14.53
2019-02-19T13:14:56.731Z,10.00
2019-02-19T13:17:29.828Z,13.10
2019-02-19T13:20:03.217Z,13.53
2019-02-19T13:22:36.416Z,9.80
2019-02-19T13:25:10.011Z,11.57
2019-02-19T13:27:43.231Z,11.97
2019-02-19T13:30:16.098Z,7.55
2019-02-19T13:32:49.236Z,15.32
2019-02-19T13:35:22.166Z,11.10
2019-02-19T13:37:55.299Z,16.87
2019-02-19T13:40:28.473Z,10.75
2019-02-19T13:43:01.433Z,14.73
2019-02-19T13:45:34.466Z,13.93
2019-02-19T13:48:07.456Z,13.83
2019-02-19T13:50:40.403Z,13.75
2019-02-19T13:53:18.354Z,16.48
2019-02-19T13:55:53.745Z,9.08
2019-02-19T13:58:26.695Z,13.18
2019-02-19T14:00:59.947Z,19.00
2019-02-19T14:03:32.952Z,13.03
2019-02-19T14:06:06.093Z,8.45
2019-02-19T14:08:39.222Z,14.63
2019-02-19T14:11:12.447Z,8.95
2019-02-19T14:13:57.339Z,11.75
2019-02-19T14:16:37.738Z,7.83
2019-02-19T14:19:36.120Z,10.15
2019-02-19T14:22:40.907Z,11.15
2019-02-19T14:25:42.806Z,12.50
2019-02-19T14:28:43.383Z,21.27
2019-02-19T14:31:41.856Z,9.88
2019-02-19T14:34:33.133Z,11.18
2019-02-19T14:37:24.120Z,11.65
2019-02-19T14:40:10.693Z,10.88
2019-02-19T14:43:03.387Z,13.60
2019-02-19T14:45:58.721Z,12.00
2019-02-19T14:48:52.196Z,10.93
2019-02-19T14:51:56.478Z,10.38
2019-02-19T14:54:47.949Z,10.40
2019-02-19T14:57:34.938Z,10.82
2019-02-19T15:00:19.674Z,12.07
2019-02-19T15:03:15.309Z,10.55
2019-02-19T15:05:59.403Z,7.47
2019-02-19T15:08:48.824Z,10.55
2019-02-19T15:11:39.614Z,18.00
2019-02-19T15:14:34.877Z,11.63
2019-02-19T15:17:27.323Z,8.20
2019-02-19T15:20:18.786Z,11.93
2019-02-19T15:23:14.102Z,16.77
2019-02-19T15:26:01.243Z,17.27
2019-02-19T15:28:53.648Z,8.70
2019-02-19T15:31:46.141Z,12.43
2019-02-19T15:34:57.080Z,12.30
2019-02-19T15:37:40.947Z,15.55
2019-02-19T15:40:36.528Z,13.95
2019-02-19T15:43:29.324Z,15.85
2019-02-19T15:46:20.424Z,11.28
2019-02-19T15:49:11.855Z,15.98
2019-02-19T15:52:16.517Z,12.90
2019-02-19T15:55:15.136Z,17.57
2019-02-19T15:58:07.509Z,16.30
2019-02-19T16:00:42.970Z,15.58
2019-02-19T16:03:30.768Z,14.43
2019-02-19T16:06:23.407Z,14.28
2019-02-19T16:09:06.397Z,10.58
2019-02-19T16:12:00.620Z,15.70
2019-02-19T16:14:56.151Z,26.25
2019-02-19T16:17:47.448Z,13.98
2019-02-19T16:20:42.320Z,13.80
2019-02-19T16:23:33.545Z,11.38
2019-02-19T16:26:19.168Z,16.10
2019-02-19T16:29:02.059Z,14.70
2019-02-19T16:31:54.620Z,11.88
2019-02-19T16:34:48.582Z,14.18
2019-02-19T16:37:39.858Z,15.37
2019-02-19T16:40:35.768Z,15.05
2019-02-19T16:43:37.158Z,20.03
2019-02-19T16:46:25.375Z,11.90
2019-02-19T16:49:08.248Z,11.97
2019-02-19T16:51:51.948Z,13.90
2019-02-19T16:54:38.413Z,12.20
2019-02-19T16:57:17.915Z,11.37
2019-02-19T17:00:16.284Z,17.23
2019-02-19T17:03:00.811Z,14.20
2019-02-19T17:05:56.364Z,15.27
2019-02-19T17:08:38.778Z,15.20
2019-02-19T17:11:20.985Z,11.80
2019-02-19T17:14:13.668Z,10.47
2019-02-19T17:17:15.093Z,19.63
2019-02-19T17:20:29.202Z,14.33
2019-02-19T17:23:10.629Z,20.90
2019-02-19T17:26:01.776Z,11.17
2019-02-19T17:28:43.053Z,27.43
2019-02-19T17:31:44.080Z,18.27
2019-02-19T17:34:42.349Z,19.00
2019-02-19T17:37:33.819Z,18.00
2019-02-19T17:40:25.239Z,20.00
2019-02-19T17:43:12.870Z,16.30
2019-02-19T17:46:08.974Z,18.33
2019-02-19T17:49:10.438Z,21.37
2019-02-19T17:52:05.759Z,18.70
2019-02-19T17:54:57.070Z,13.40
2019-02-19T17:57:39.649Z,17.23
2019-02-19T18:00:32.035Z,14.23
2019-02-19T18:03:17.410Z,20.40
2019-02-19T18:06:08.647Z,21.57
2019-02-19T18:08:53.004Z,17.17
2019-02-19T18:11:44.011Z,12.20
2019-02-19T18:14:42.535Z,20.07
2019-02-19T18:17:26.459Z,16.37
2019-02-19T18:19:59.468Z,18.40
2019-02-19T18:22:32.516Z,21.80
2019-02-19T18:25:05.888Z,12.30
2019-02-19T18:27:38.876Z,17.17
2019-02-19T18:30:12.064Z,19.03
2019-02-19T18:32:44.989Z,18.43
2019-02-19T18:35:18.096Z,16.40
2019-02-19T18:37:51.134Z,17.00
2019-02-19T18:40:24.029Z,21.17
2019-02-19T18:42:57.082Z,28.13
2019-02-19T18:45:30.085Z,56.60
2019-02-19T18:48:03.010Z,67.60
2019-02-19T18:50:35.980Z,44.00
2019-02-19T18:53:09.208Z,28.53
2019-02-19T18:55:42.101Z,23.87
2019-02-19T18:58:15.159Z,32.93
2019-02-19T19:00:48.389Z,27.67
2019-02-19T19:03:21.455Z,24.43
2019-02-19T19:05:54.521Z,22.23
2019-02-19T19:08:27.767Z,30.67
2019-02-19T19:11:01.006Z,30.57
2019-02-19T19:13:33.995Z,22.33
2019-02-19T19:16:07.186Z,23.93
2019-02-19T19:18:40.491Z,34.77
2019-02-19T19:21:13.332Z,35.40
2019-02-19T19:23:46.689Z,31.67
2019-02-19T19:26:19.842Z,33.90
2019-02-19T19:28:52.936Z,33.53
2019-02-19T19:31:33.187Z,25.20
2019-02-19T19:34:00.875Z,24.90
2019-02-19T19:36:33.872Z,25.97
2019-02-19T19:39:07.109Z,22.43
2019-02-19T19:41:41.911Z,18.53
2019-02-19T19:44:15.022Z,19.17
2019-02-19T19:46:48.103Z,20.90
2019-02-19T19:49:21.201Z,27.93
2019-02-19T19:51:55.886Z,31.73
2019-02-19T19:54:28.768Z,25.37
2019-02-19T19:57:01.942Z,21.33
2019-02-19T19:59:35.400Z,24.13
2019-02-19T20:02:08.893Z,20.90
2019-02-19T20:04:41.928Z,16.97
2019-02-19T20:07:15.385Z,23.33
2019-02-19T20:09:48.323Z,23.13
2019-02-19T20:12:21.172Z,21.00
2019-02-19T20:14:54.191Z,24.13
2019-02-19T20:17:27.201Z,29.10
2019-02-19T20:20:00.302Z,30.27
2019-02-19T20:22:33.258Z,21.80
2019-02-19T20:25:08.392Z,21.50
2019-02-19T20:27:41.347Z,16.10
2019-02-19T20:30:14.567Z,26.87
2019-02-19T20:32:47.612Z,31.27
2019-02-19T20:35:20.632Z,27.90
2019-02-19T20:37:54.294Z,40.23
2019-02-19T20:40:27.563Z,23.90
2019-02-19T20:43:00.794Z,21.47
2019-02-19T20:45:34.198Z,19.10
2019-02-19T20:48:07.059Z,22.17
2019-02-19T20:50:39.915Z,30.40
2019-02-19T20:53:12.947Z,21.37
2019-02-19T20:55:45.823Z,22.77
2019-02-19T20:58:18.693Z,31.90
2019-02-19T21:00:53.278Z,43.20
2019-02-19T21:03:26.396Z,44.20
2019-02-19T21:05:59.310Z,33.70
2019-02-19T21:08:33.893Z,34.77
2019-02-19T21:11:06.799Z,31.17
2019-02-19T21:13:40.167Z,31.60
2019-02-19T21:16:13.217Z,32.93
2019-02-19T21:18:46.336Z,33.73
2019-02-19T21:21:19.295Z,32.07
2019-02-19T21:23:52.564Z,30.73
2019-02-19T21:26:25.616Z,37.60
2019-02-19T21:28:58.527Z,30.67
2019-02-19T21:31:31.717Z,28.57
2019-02-19T21:34:04.468Z,27.33
2019-02-19T21:36:38.432Z,31.20
2019-02-19T21:39:12.779Z,20.03
2019-02-19T21:41:47.533Z,25.83
2019-02-19T21:44:20.662Z,23.83
2019-02-19T21:46:53.929Z,27.40
2019-02-19T21:49:26.853Z,34.13
2019-02-19T21:51:59.990Z,22.30
2019-02-19T21:54:33.318Z,29.07
2019-02-19T21:57:06.284Z,25.53
2019-02-19T21:59:39.374Z,32.37
2019-02-19T22:02:16.467Z,23.50
2019-02-19T22:04:47.332Z,28.33
2019-02-19T22:07:20.387Z,26.57
2019-02-19T22:09:53.502Z,27.93
2019-02-19T22:12:26.430Z,29.67
2019-02-19T22:14:59.402Z,30.20
2019-02-19T22:17:32.310Z,35.63
2019-02-19T22:20:08.594Z,31.07
2019-02-19T22:22:42.245Z,29.47
2019-02-19T22:25:15.166Z,33.87
2019-02-19T22:27:48.114Z,29.20
2019-02-19T22:30:22.058Z,34.17
2019-02-19T22:32:55.375Z,34.13
2019-02-19T22:35:28.523Z,30.10
2019-02-19T22:38:01.502Z,26.07
2019-02-19T22:40:34.345Z,24.37
2019-02-19T22:43:07.359Z,27.77
2019-02-19T22:45:40.429Z,26.93
2019-02-19T22:48:13.368Z,24.17
2019-02-19T22:50:46.333Z,24.47
2019-02-19T22:53:41.004Z,39.83
2019-02-19T22:56:20.854Z,30.27
2019-02-19T22:58:54.135Z,26.33
2019-02-19T23:01:39.434Z,28.93
2019-02-19T23:04:12.368Z,27.10
2019-02-19T23:06:45.342Z,25.77
2019-02-19T23:09:18.447Z,26.13
2019-02-19T23:11:51.571Z,39.00
2019-02-19T23:14:24.472Z,26.37
2019-02-19T23:16:57.453Z,29.53
2019-02-19T23:19:30.428Z,26.93
2019-02-19T23:22:03.321Z,24.77
2019-02-19T23:24:36.345Z,34.20
2019-02-19T23:27:09.471Z,31.10
2019-02-19T23:29:42.690Z,31.40
2019-02-19T23:32:15.590Z,27.30
2019-02-19T23:35:08.887Z,27.37
2019-02-19T23:37:41.939Z,27.40
2019-02-19T23:40:14.791Z,27.17
2019-02-19T23:42:47.785Z,28.07
2019-02-19T23:45:20.789Z,26.23
2019-02-19T23:47:53.820Z,22.30
2019-02-19T23:50:26.580Z,27.77
2019-02-19T23:52:59.495Z,23.13
2019-02-19T23:55:32.469Z,32.10
2019-02-19T23:58:05.334Z,22.47
